Tiempo atmosférico en la estación meteorológica de Ponferrada, León (534 m.)



Fecha
DESCASC
Temp. máxima en grados centígrados (hora)
DESCASC
Temp. mínima en grados centígrados (hora)
DESCASC
Temp. media en grados centígrados
DESCASC
Racha de viento máxima en m/sg (hora)
DESCASC
Velocidad máxima media en intervalos de 10 minutos(hora)
DESCASC
Precipitaciones diarias en mm
DESCASC
Precipitaciones de 00:00 a 06:00 en mm
DESCASC
Precipitaciones de 06:00 a 12:00 en mm
DESCASC
Precipitaciones de 12:00 a 18:00 en mm
DESCASC
Precipitaciones de 18:00 a 24:00 en mm
DESCASC
16-06-2019 28.5 (18:00) 7.4 (07:30) 18 8.33 (19:10) 3.61 (19:20) 0 0 0 0 0
15-06-2019 22.7 (18:20) 8.3 (05:20) 15.5 7.78 (18:50) 3.61 (18:50) 0 0 0 0 0
14-06-2019 21.6 (16:50) 6 (07:20) 13.8 9.72 (16:40) 5 (19:10) 0 0 0 0 0
13-06-2019 21 (16:50) 6.1 (00:00) 13.5 8.33 (17:50) 4.17 (18:50) -- 0 -- 0 0
12-06-2019 20.2 (17:30) 5.6 (00:00) 12.9 8.89 (17:30) 3.89 (21:00) 0 0 0 0 0
11-06-2019 18.4 (17:40) 9 (00:00) 13.7 8.61 (13:10) 4.72 (18:30) 0 0 0 0 0
10-06-2019 20 (18:10) 6.8 (00:00) 13.4 8.61 (18:30) 4.72 (19:10) 0 0 0 0 0
09-06-2019 21.2 (17:40) 8.7 (00:00) 15 9.72 (18:40) 5.28 (19:30) 0 0 0 0 0
08-06-2019 21.5 (17:20) 6 (00:00) 13.8 7.22 (14:20) 4.72 (19:00) 0 0 0 0 0
07-06-2019 15.6 (15:00) 8 (00:00) 11.8 13.33 (17:50) 5.83 (15:20) 1.8 1 0 0.2 0.6
06-06-2019 17 (14:40) 6.1 (00:00) 11.5 9.44 (16:10) 3.89 (14:20) 10.6 0 0 5 5.6
05-06-2019 15 (14:50) 9.1 (00:00) 12.1 9.44 (13:20) 4.17 (11:50) 3 0.4 1.2 0.8 0.6
04-06-2019 20.4 (19:30) 12.2 (00:00) 16.3 9.72 (12:40) 5 (20:20) 0.2 0 0 0.2 0
03-06-2019 28.2 (16:40) 17 (00:00) 22.6 9.72 (17:50) 5 (18:00) 0 0 0 0 0
02-06-2019 28.7 (17:10) 12.9 (00:00) 20.8 5.83 (17:20) 3.61 (17:20) 0 0 0 0 0
01-06-2019 33.6 (17:10) 14.3 (00:00) 23.9 7.5 (19:40) 3.89 (20:00) 0 0 0 0 0
31-05-2019 33.9 (19:40) 13.8 (00:00) 23.9 5.83 (02:10) 3.33 (02:10) 0 0 0 0 0
30-05-2019 32.4 (18:10) 11.2 (00:00) 21.8 6.11 (00:30) 3.61 (00:40) -- 0 -- 0 0
29-05-2019 -- (--) -- (--) -- -- (--) -- (--) -- 0 -- 0 --
28-05-2019 -- (--) -- (--) -- -- (--) -- (--) -- -- 0 0 0
27-05-2019 -- (--) -- (--) -- -- (--) -- (--) -- 0 -- -- 0
26-05-2019 29.3 (18:10) 9.5 (00:00) 19.4 8.61 (19:40) 5 (19:20) 0 0 0 0 0
25-05-2019 26.5 (17:40) 7.6 (00:00) 17 6.67 (19:00) 3.61 (17:50) 0 0 0 0 0
24-05-2019 23.1 (17:10) 7.5 (00:00) 15.3 -- (--) -- (--) -- 0 0 0 --
23-05-2019 23.9 (15:30) 13 (00:00) 18.4 10.56 (16:50) 5.28 (16:10) 0 0 0 0 0
22-05-2019 27.3 (17:50) 9.8 (00:00) 18.5 6.67 (17:30) 3.61 (17:30) 0 0 0 0 0
21-05-2019 25.5 (18:30) 7.4 (07:40) 16.5 5.83 (20:50) 3.06 (21:20) -- 0 -- 0 0

Gráficas

Temp. máximas Temp. mínimas Temp. medias Precipitaciones Rachas de viento máximas Velocidades máximas media en intervalos de 10 minutos

Datos horarios

Fecha y hora oficial Temperatura (ºC) Velocidad del viento (km/h) Dirección del viento Racha (km/h) Dirección de racha Precipitación (mm) Presión (hPa) Tendencia (hPa) Humedad (%)
2019-06-19 23:00:00 18 6 Oeste 12 Oeste 0 954.5 1 64
2019-06-19 22:00:00 19.1 7 Noroeste 13 Noroeste 0 954 0.8 57
2019-06-19 21:00:00 20 9 Oeste 21 Oeste 0 953.9 0.9 53
2019-06-19 20:00:00 20.9 9 Oeste 24 Oeste 0 953.5 0.7 51
2019-06-19 19:00:00 22.5 14 Oeste 29 Oeste 0 953.2 0.7 47
2019-06-19 18:00:00 22.6 18 Oeste 30 Oeste 0 953 0.3 47
2019-06-19 17:00:00 22.4 15 Oeste 31 Noroeste 0 952.8 0 45
2019-06-19 16:00:00 22.8 11 Noroeste 27 Oeste 0 952.5 -0.5 47
2019-06-19 15:00:00 22.3 11 Noroeste 28 Noroeste 0 952.7 0 46
2019-06-19 14:00:00 21.3 7 Noroeste 16 Noroeste 0 952.8 0.1 52
2019-06-19 13:00:00 19.8 5 Noroeste 12 Oeste 0 953 0.4 61
2019-06-19 12:00:00 19.4 6 Nordeste 13 Sudeste 0 952.7 0.3 64
2019-06-19 11:00:00 18.4 4 Noroeste 16 Oeste 0 952.7 0.9 67
2019-06-19 10:00:00 17 0 Calma 4 Nordeste 0 952.6 0.9 74
2019-06-19 09:00:00 15.9 3 Sur 6 Sur 0 952.4 0.9 86
2019-06-19 08:00:00 14.8 3 Sudeste 5 Sudeste 0 951.8 0.2 90
2019-06-19 07:00:00 14.4 0 Calma 5 Sudeste 0 951.7 0.4 90
2019-06-19 06:00:00 14.5 0 Calma 10 Oeste 0 951.5 0.1 88
2019-06-19 05:00:00 15.1 2 Noroeste 15 Oeste 0 951.6 0.1 90
2019-06-19 04:00:00 15.5 4 Este 6 Sudoeste 0 951.3 -0.5 91
2019-06-19 03:00:00 15.7 0 Calma 8 Nordeste 0 951.4 0 90
2019-06-19 02:00:00 15.8 2 Nordeste 8 Noroeste 0.2 951.5 0.4 88
2019-06-19 01:00:00 16 3 Noroeste 10 Noroeste 0.2 951.8 1.1 87
2019-06-19 00:00:00 16.6 5 Oeste 12 Sudoeste 0 951.4 1.1 83
2019-06-18 23:00:00 16.7 0 Calma 8 Nordeste 0.2 951.1 1.2 82
2019-06-18 22:00:00 17 4 Sur 19 Este 0 950.7 0.8 80
2019-06-18 21:00:00 17 12 Este 23 Este 0.2 950.3 0.7 81
2019-06-18 20:00:00 18.2 10 Este 21 Este 0 949.9 0.6 75
2019-06-18 19:00:00 19 3 Noroeste 19 Nordeste 0.4 949.9 0.5 70
2019-06-18 18:00:00 20.9 4 Norte 17 Oeste 1.2 949.6 -0.6 64
2019-06-18 17:00:00 21.5 5 Oeste 15 Sudeste 0 949.3 -0.9 50
2019-06-18 16:00:00 21.6 9 Sudeste 19 Sudeste 0 949.4 -1.1 48
2019-06-18 15:00:00 19.2 6 Este 10 Este 0 950.2 -0.2 64
2019-06-18 14:00:00 18.3 5 Nordeste 12 Norte 0 950.2 0.3 68
2019-06-18 13:00:00 17.7 4 Norte 15 Noroeste 0 950.5 0.9 69
2019-06-18 12:00:00 18.7 6 Noroeste 13 Noroeste 0 950.4 0.8 50
2019-06-18 11:00:00 18.5 6 Oeste 14 Oeste 0 949.9 0.4 44
2019-06-18 10:00:00 17.6 4 Sudoeste 10 Oeste 0 949.6 0.1 45
2019-06-18 09:00:00 15 2 Este 8 Noroeste 0 949.6 0 52
2019-06-18 08:00:00 12 3 Este 8 Nordeste 0 949.5 -0.1 65
2019-06-18 07:00:00 11.4 2 Oeste 6 Este 0 949.5 -0.3 64
2019-06-18 06:00:00 12.3 3 Este 9 Nordeste 0 949.6 -0.9 62
2019-06-18 05:00:00 13.5 2 Sudeste 8 Nordeste 0 949.6 -1.5 56
2019-06-18 04:00:00 14.3 3 Este 5 Este 0 949.8 -1.5 53
2019-06-18 03:00:00 16.3 3 Este 5 Nordeste 0 950.5 -1.4 45
2019-06-18 02:00:00 18.7 4 Oeste 10 Sudoeste 0 951.1 -1.6 38
2019-06-18 01:00:00 20.9 10 Este 19 Este 0 951.3 -0.7 31
2019-06-18 00:00:00 20.8 10 Este 18 Este 0 951.9 -0.5 29
2019-06-17 23:00:00 20.5 5 Sudeste 9 Sudeste 0 952.7 0.8 31
2019-06-17 22:00:00 22.1 2 Norte 12 Oeste 0 952 0.4 24
2019-06-17 21:00:00 22.9 9 Oeste 23 Noroeste 0 952.4 0.3 25
2019-06-17 20:00:00 24 6 Noroeste 19 Oeste 0 951.9 -0.4 22
2019-06-17 19:00:00 25 4 Noroeste 20 Noroeste 0 951.6 -0.6 23
2019-06-17 18:00:00 25.5 7 Noroeste 22 Oeste 0 952.1 -0.1 18
2019-06-17 17:00:00 26.2 13 Oeste 26 Oeste 0 952.3 0.3 15
2019-06-17 16:00:00 26.3 10 Noroeste 29 Noroeste 0 952.2 -0.4 15
2019-06-17 15:00:00 26.8 10 Oeste 21 Noroeste 0 952.2 -0.7 27
2019-06-17 14:00:00 27.1 9 Noroeste 18 Noroeste 0 952 -1.9 29
2019-06-17 13:00:00 24.9 7 Oeste 14 Oeste 0 952.6 -1.8 41
2019-06-17 12:00:00 21.5 6 Noroeste 13 Oeste 0 952.9 -2 52
2019-06-17 11:00:00 18.6 5 Oeste 10 Sudoeste 0 953.9 -1 61
2019-06-17 10:00:00 15.6 4 Sudoeste 10 Oeste 0 954.4 -0.8 71
2019-06-17 09:00:00 13.6 4 Oeste 9 Sudoeste 0 954.9 -0.1 76
2019-06-17 08:00:00 12.1 3 Oeste 6 Sur 0 954.9 -0.3 83
2019-06-17 07:00:00 11.2 2 Sudeste 6 Sur 0 955.2 0 85
2019-06-17 06:00:00 11.8 3 Sur 5 Sudeste 0 955 -0.4 82
2019-06-17 05:00:00 12.6 0 Calma 5 Oeste 0 955.2 0 79
2019-06-17 04:00:00 13.9 2 Sudeste 10 Sudeste 0 955.2 -0.3 75
2019-06-17 03:00:00 15.1 3 Sur 6 Sur 0 955.4 -0.2 72
2019-06-17 02:00:00 16.3 3 Sudeste 8 Sudeste 0 955.2 0.2 69
2019-06-17 01:00:00 17.5 3 Este 6 Sudoeste 0 955.5 1.4 67
2019-06-17 00:00:00 19.4 4 Este 17 Noroeste 0 955.6 1.9 61
2019-06-16 23:00:00 21.3 9 Oeste 17 Oeste 0 955 1.4 53
2019-06-16 22:00:00 23.6 5 Oeste 10 Sudoeste 0 954.1 0.8 44
2019-06-16 21:00:00 24.9 5 Noroeste 24 Noroeste 0 953.7 0.1 39
2019-06-16 20:00:00 26.4 13 Noroeste 30 Sudoeste 0 953.6 -0.2 35
2019-06-16 19:00:00 27.3 9 Oeste 21 Noroeste 0 953.3 -1.1 28
2019-06-16 18:00:00 28.4 9 Noroeste 18 Noroeste 0 953.6 -1.5 24
2019-06-16 17:00:00 27.8 7 Noroeste 22 Oeste 0 953.8 -2 27
2019-06-16 16:00:00 26.6 8 Oeste 19 Noroeste 0 954.4 -2.1 30
2019-06-16 15:00:00 25.3 9 Oeste 21 Noroeste 0 955.1 -2.3 33
2019-06-16 14:00:00 23.9 10 Oeste 18 Noroeste 0 955.8 -2.3 36
2019-06-16 13:00:00 21.5 5 Oeste 13 Oeste 0 956.5 -2 44
2019-06-16 12:00:00 18.1 5 Oeste 12 Noroeste 0 957.4 -1.3 51
2019-06-16 11:00:00 15.6 4 Sur 10 Oeste 0 958.1 -0.2 59
2019-06-16 10:00:00 13.2 3 Sur 8 Oeste 0 958.5 0 68
2019-06-16 09:00:00 10.4 4 Oeste 7 Oeste 0 958.7 0.5 77
2019-06-16 08:00:00 9 0 Calma 4 Sudeste 0 958.3 -0.2 85
2019-06-16 07:00:00 7.6 2 Nordeste 5 Oeste 0 958.5 0 85
2019-06-16 06:00:00 8.4 0 Calma 4 Sur 0 958.2 -0.4 84
2019-06-16 05:00:00 9.4 3 Sudeste 6 Sur 0 958.5 -0.4 81
2019-06-16 04:00:00 10.5 2 Este 11 Sur 0 958.5 -0.6 75
2019-06-16 03:00:00 11.5 5 Sur 9 Sudeste 0 958.6 -0.2 73
2019-06-16 02:00:00 12.6 4 Sudeste 8 Oeste 0 958.9 0.7 70
2019-06-16 01:00:00 13.8 3 Sudoeste 8 Sudoeste 0 959.1 1.7 65
2019-06-16 00:00:00 15 3 Oeste 13 Sudoeste 0 958.8 1.5 60
2019-06-15 23:00:00 16.4 6 Oeste 14 Oeste 0 958.2 1.2 55
2019-06-15 22:00:00 18.1 9 Oeste 19 Oeste 0 957.4 0.6 47
2019-06-15 21:00:00 20.8 12 Noroeste 21 Noroeste 0 957.3 0.4 39
2019-06-15 20:00:00 21.8 11 Noroeste 26 Noroeste 0 957 -0.3 37
2019-06-15 19:00:00 22.3 10 Oeste 28 Noroeste 0 956.8 -0.8 36
2019-06-15 18:00:00 22.6 9 Noroeste 23 Noroeste 0 956.9 -1.1 35
2019-06-15 17:00:00 21.8 10 Norte 23 Oeste 0 957.3 -1.1 36
2019-06-15 16:00:00 20.9 10 Noroeste 22 Norte 0 957.6 -1.1 37
2019-06-15 15:00:00 19.8 7 Oeste 24 Noroeste 0 958 -1 40
2019-06-15 14:00:00 18.4 9 Noroeste 21 Oeste 0 958.4 -0.7 42
2019-06-15 13:00:00 16.8 8 Oeste 19 Oeste 0 958.7 -0.1 47
2019-06-15 12:00:00 15.7 7 Oeste 17 Noroeste 0 959 0.6 57
2019-06-15 11:00:00 12.9 3 Norte 9 Noroeste 0 959.1 1.4 70
2019-06-15 10:00:00 11.7 3 Sur 6 Sudeste 0 958.8 1.6 76
2019-06-15 09:00:00 10.4 3 Sudoeste 7 Oeste 0 958.4 1.3 84
2019-06-15 08:00:00 9.7 5 Noroeste 9 Oeste 0 957.7 0.7 87
2019-06-15 07:00:00 9.2 5 Norte 10 Noroeste 0 957.2 0.2 86
2019-06-15 06:00:00 8.6 3 Norte 7 Norte 0 957.1 0.3 87
2019-06-15 05:00:00 8.5 3 Este 5 Este 0 957 0.4 86
2019-06-15 04:00:00 9.5 4 Este 5 Este 0 957 0.6 84
2019-06-15 03:00:00 11.1 0 Calma 9 Norte 0 956.8 0.9 82
2019-06-15 02:00:00 11.9 5 Noroeste 20 Noroeste 0 956.6 1.7 81
2019-06-15 01:00:00 12.9 9 Noroeste 21 Oeste 0 956.4 2.5 71
2019-06-15 00:00:00 13.6 10 Oeste 21 Oeste 0 955.9 2.7 63
2019-06-14 23:00:00 14.4 9 Oeste 18 Noroeste 0 954.9 2.8 57
2019-06-14 22:00:00 15.4 9 Oeste 30 Oeste 0 953.9 2.6 51
2019-06-14 21:00:00 16.4 18 Oeste 32 Oeste 0 953.2 2.6 47
2019-06-14 20:00:00 17.5 13 Noroeste 31 Noroeste 0 952.1 1.7 43
2019-06-14 19:00:00 19.1 16 Noroeste 33 Norte 0 951.3 0.8 39
2019-06-14 18:00:00 20.4 12 Noroeste 26 Noroeste 0 950.6 0.2 33
2019-06-14 17:00:00 21.2 14 Oeste 35 Noroeste 0 950.4 -0.5 33
2019-06-14 16:00:00 21.4 14 Noroeste 30 Noroeste 0 950.5 -0.4 33
2019-06-14 15:00:00 20.3 9 Oeste 20 Sudoeste 0 950.4 -0.8 36
2019-06-14 14:00:00 19.4 9 Oeste 21 Oeste 0 950.9 -0.7 41
2019-06-14 13:00:00 17.7 6 Noroeste 15 Noroeste 0 950.9 -0.9 42
2019-06-14 12:00:00 15.4 6 Oeste 16 Oeste 0 951.2 -0.5 54
2019-06-14 11:00:00 12.5 4 Oeste 10 Oeste 0 951.6 -0.1 65
2019-06-14 10:00:00 11 5 Noroeste 11 Oeste 0 951.8 0.4 69
2019-06-14 09:00:00 9.2 4 Sudoeste 6 Sur 0 951.7 0.5 73
2019-06-14 08:00:00 7.1 2 Este 5 Oeste 0 951.7 0.9 82
2019-06-14 07:00:00 6.2 0 Calma 5 Norte 0 951.4 0.5 84
2019-06-14 06:00:00 7 2 Sudeste 3 Sur 0 951.2 0.3 81
2019-06-14 05:00:00 8 0 Calma 5 Sudeste 0 950.8 -0.3 77
2019-06-14 04:00:00 8.9 2 Sur 6 Sur 0 950.9 -0.3 74
2019-06-14 03:00:00 9.7 4 Sudeste 9 Sudeste 0 950.9 -0.1 72
2019-06-14 02:00:00 11.2 4 Sudeste 10 Sudoeste 0 951.1 0.6 66
2019-06-14 01:00:00 12.4 3 Sudoeste 11 Oeste 0 951.2 1.3 64
2019-06-14 00:00:00 13.2 2 Sur 16 Sudoeste 0 951 1.6 57
2019-06-13 23:00:00 14.5 7 Oeste 14 Sudoeste 0 950.5 1.6 51
2019-06-13 22:00:00 16 8 Noroeste 19 Noroeste 0 949.9 1.4 42
2019-06-13 21:00:00 18.1 12 Noroeste 28 Oeste 0 949.4 1.2 37
2019-06-13 20:00:00 19.2 15 Noroeste 27 Oeste 0 948.9 0.8 34
2019-06-13 19:00:00 20 13 Noroeste 30 Noroeste 0 948.5 0.4 33
2019-06-13 18:00:00 19.4 11 Noroeste 30 Oeste 0 948.2 0 35
2019-06-13 17:00:00 20.4 10 Noroeste 22 Noroeste 0 948.1 -0.6 34
2019-06-13 16:00:00 19 8 Noroeste 24 Sudoeste 0 948.1 -0.8 37
2019-06-13 15:00:00 19.9 9 Sudoeste 19 Noroeste 0 948.2 -1.1 35
2019-06-13 14:00:00 17.8 9 Oeste 21 Nordeste 0 948.7 -1 40
2019-06-13 13:00:00 16.7 6 Sudoeste 16 Noroeste 0 948.9 -1.1 43
2019-06-13 12:00:00 14.7 4 Oeste 13 Oeste 0 949.3 -1 57
2019-06-13 11:00:00 12.4 5 Noroeste 12 Noroeste 0 949.7 -- 64
2019-06-13 10:00:00 10 5 Oeste 10 Noroeste 0 950 -0.1 72
2019-06-13 09:00:00 7.7 3 Sudoeste -- -- -- 950.3 0.4 81
2019-06-13 08:00:00 -- -- -- -- -- -- -- -- --
2019-06-13 07:00:00 6.2 0 Calma 5 Sur 0 950.1 0.3 83
2019-06-13 06:00:00 6.8 2 Este 9 Sur 0 949.9 -0.1 81
2019-06-13 05:00:00 7.2 3 Sur 6 Sur 0 949.8 -0.5 81
2019-06-13 04:00:00 7.8 3 Sudeste 7 Este 0 949.8 -0.5 78
2019-06-13 03:00:00 8.9 3 Sudeste 9 Sur 0 950 -0.5 74
2019-06-13 02:00:00 10.7 3 Sudoeste 13 Oeste 0 950.3 -0.3 70
2019-06-13 01:00:00 11.4 3 Oeste 15 Oeste 0 950.3 0.2 69
2019-06-13 00:00:00 12.4 5 Oeste 16 Oeste 0 950.5 0.9 65
2019-06-12 23:00:00 13.7 8 Sudoeste 18 Noroeste 0 950.6 1.2 58
2019-06-12 22:00:00 15.6 7 Noroeste 22 Oeste 0 950.1 0.6 46
2019-06-12 21:00:00 17.7 14 Oeste 23 Oeste 0 949.6 -0.4 35
2019-06-12 20:00:00 18.5 13 Oeste 22 Oeste 0 949.4 -0.8 33
2019-06-12 19:00:00 19.6 10 Oeste 26 Oeste 0 949.5 -1.1 31
2019-06-12 18:00:00 20 12 Oeste 32 Oeste 0 950 -1.4 30
2019-06-12 17:00:00 19.5 12 Oeste 26 Oeste 0 950.2 -2.1 31
2019-06-12 16:00:00 19.1 7 Oeste 24 Noroeste 0 950.6 -2.4 31
2019-06-12 15:00:00 18 7 Noroeste 23 Noroeste 0 951.4 -2.2 32
2019-06-12 14:00:00 16.9 9 Noroeste 21 Sudoeste 0 952.3 -1.7 33
2019-06-12 13:00:00 15.8 8 Noroeste 27 Oeste 0 953 -1.3 35
2019-06-12 12:00:00 14.3 9 Oeste 15 Oeste 0 953.6 -1 41
2019-06-12 11:00:00 13 4 Oeste 17 Oeste 0 954 -0.6 53
2019-06-12 10:00:00 10.5 6 Sudoeste 11 Sudoeste 0 954.3 0 64
2019-06-12 09:00:00 8 2 Noroeste 6 Norte 0 954.6 0.4 74
2019-06-12 08:00:00 6.8 3 Norte 7 Norte 0 954.6 -0.1 79
2019-06-12 07:00:00 5.7 0 Calma 7 Sur 0 954.3 -0.8 81
2019-06-12 06:00:00 6 0 Calma 8 Sudoeste 0 954.2 -1.2 80
2019-06-12 05:00:00 6.5 3 Este 8 Oeste 0 954.7 -1.1 80
2019-06-12 04:00:00 7.4 3 Sudoeste 9 Sudoeste 0 955.1 -0.9 76
2019-06-12 03:00:00 7.7 3 Este 9 Sudoeste 0 955.4 -0.7 75
2019-06-12 02:00:00 8.8 3 Este 12 Oeste 0 955.8 -0.4 72
2019-06-12 01:00:00 10 5 Noroeste 13 Oeste 0 956 0.2 67
2019-06-12 00:00:00 11 3 Oeste 10 Sudoeste 0 956.1 0.4 62
2019-06-11 23:00:00 11.9 4 Oeste 14 Nordeste 0 956.2 0.7 52
2019-06-11 22:00:00 13.6 4 Noroeste 17 Noroeste 0 955.8 0.2 46
2019-06-11 21:00:00 15.7 10 Noroeste 26 Noroeste 0 955.7 0.3 37
2019-06-11 20:00:00 17.6 10 Norte 25 Noroeste 0 955.5 0.1 33
2019-06-11 19:00:00 18.2 9 Noroeste 29 Noroeste 0 955.6 0.2 34
2019-06-11 18:00:00 17.7 5 Norte 26 Norte 0 955.4 -0.4 34
2019-06-11 17:00:00 18 11 Noroeste 22 Noroeste 0 955.4 -0.7 33
2019-06-11 16:00:00 17.7 9 Norte 28 Nordeste 0 955.4 -0.7 34
2019-06-11 15:00:00 17.5 8 Noroeste 22 Norte 0 955.8 -0.2 37
2019-06-11 14:00:00 16.2 7 Norte 31 Nordeste 0 956.1 0.3 38
2019-06-11 13:00:00 14.8 10 Norte 29 Nordeste 0 956.1 0.5 39
2019-06-11 12:00:00 14 7 Norte 21 Noroeste 0 956 0.6 45
2019-06-11 11:00:00 14.4 10 Nordeste 25 Norte 0 955.8 0.6 42
2019-06-11 10:00:00 11.9 4 Noroeste 9 Oeste 0 955.6 0.9 57
2019-06-11 09:00:00 10.1 3 Oeste 6 Sudoeste 0 955.4 0.8 72
2019-06-11 08:00:00 9.5 2 Noroeste 10 Noroeste 0 955.2 0.5 74
2019-06-11 07:00:00 9.1 3 Oeste 14 Oeste 0 954.7 -0.3 76
2019-06-11 06:00:00 9.8 6 Oeste 15 Oeste 0 954.6 -0.4 71
2019-06-11 05:00:00 10.6 6 Oeste 15 Sudoeste 0 954.7 -0.7 65
2019-06-11 04:00:00 11.2 5 Oeste 12 Oeste 0 955 -0.4 63
2019-06-11 03:00:00 11.4 5 Oeste 15 Noroeste 0 955 -0.5 64
2019-06-11 02:00:00 11.8 6 Oeste 22 Oeste 0 955.4 0.3 64
2019-06-11 01:00:00 12.7 9 Oeste 19 Sudoeste 0 955.4 0.7 63
2019-06-11 00:00:00 13.8 6 Oeste 22 Oeste 0 955.5 0.8 59
2019-06-10 23:00:00 14.6 13 Noroeste 26 Oeste 0 955.1 0.7 58
2019-06-10 22:00:00 15.5 10 Oeste 26 Noroeste 0 954.7 0.4 50
2019-06-10 21:00:00 16.6 15 Noroeste 31 Noroeste 0 954.7 -0.1 44
2019-06-10 20:00:00 17.5 15 Noroeste 30 Noroeste 0 954.4 -0.7 41
2019-06-10 19:00:00 18.6 15 Noroeste 31 Noroeste 0 954.3 -1.2 35
2019-06-10 18:00:00 19.8 16 Oeste 28 Oeste 0 954.8 -1.4 36
2019-06-10 17:00:00 18.9 15 Oeste 27 Oeste 0 955.1 -1.7 38
2019-06-10 16:00:00 18.3 12 Noroeste 20 Noroeste 0 955.5 -1.8 38
2019-06-10 15:00:00 18.2 7 Oeste 16 Noroeste 0 956.2 -1.7 38
2019-06-10 14:00:00 18 10 Noroeste 21 Oeste 0 956.8 -1.6 37
2019-06-10 13:00:00 17 6 Sudoeste 18 Oeste 0 957.3 -1.4 43
2019-06-10 12:00:00 15.1 5 Noroeste 15 Noroeste 0 957.9 -0.7 54
2019-06-10 11:00:00 13 3 Sudoeste 12 Oeste 0 958.4 -0.2 66
2019-06-10 10:00:00 11.2 5 Oeste 11 Oeste 0 958.7 0.4 73
2019-06-10 09:00:00 9.8 2 Sur 5 Noroeste 0 958.6 0.6 78
2019-06-10 08:00:00 7.5 0 Calma 4 Norte 0 958.6 0.5 86
2019-06-10 07:00:00 7 0 Calma 3 Sur 0 958.3 0.1 88
2019-06-10 06:00:00 7.7 2 Sudeste 5 Sudeste 0 958 -0.5 86
2019-06-10 05:00:00 8.3 3 Sudeste 5 Sudeste 0 958.1 -0.7 84
2019-06-10 04:00:00 9.2 3 Sudeste 6 Oeste 0 958.2 -0.7 81
2019-06-10 03:00:00 10.7 2 Oeste 14 Oeste 0 958.5 -0.2 76
2019-06-10 02:00:00 11.2 6 Oeste 11 Oeste 0 958.8 0.6 73
2019-06-10 01:00:00 12.5 0 Calma 9 Oeste 0 958.9 1.6 67
2019-06-10 00:00:00 13.2 4 Oeste 10 Oeste 0 958.7 1.7 66
2019-06-09 23:00:00 14.5 2 Norte 16 Oeste 0 958.2 1.8 60
2019-06-09 22:00:00 16.3 7 Noroeste 20 Noroeste 0 957.3 1.5 50
2019-06-09 21:00:00 17.5 12 Noroeste 31 Oeste 0 957 1.7 47
2019-06-09 20:00:00 19.3 16 Noroeste 32 Oeste 0 956.4 1.1 42
2019-06-09 19:00:00 20.4 15 Noroeste 35 Noroeste 0 955.8 0.4 37
2019-06-09 18:00:00 20.8 15 Noroeste 30 Oeste 0 955.3 -0.2 36
2019-06-09 17:00:00 20.4 13 Noroeste 30 Oeste 0 955.3 -0.6 38
2019-06-09 16:00:00 19.6 12 Oeste 27 Oeste 0 955.4 -1 43
2019-06-09 15:00:00 20.1 12 Oeste 23 Oeste 0 955.5 -1.3 39
2019-06-09 14:00:00 18.9 9 Oeste 21 Oeste 0 955.9 -1.3 43
2019-06-09 13:00:00 17.3 6 Oeste 15 Sudoeste 0 956.4 -0.9 47
2019-06-09 12:00:00 15 5 Sudeste 15 Oeste 0 956.8 -0.3 63
2019-06-09 11:00:00 12.8 4 Sur 11 Oeste 0 957.2 0.5 71
2019-06-09 10:00:00 11 5 Oeste 10 Noroeste 0 957.3 0.9 80
2019-06-09 09:00:00 9.9 3 Oeste 8 Sudoeste 0 957.1 0.7 87
2019-06-09 08:00:00 9.1 2 Oeste 7 Noroeste 0 956.7 0.4 89
2019-06-09 07:00:00 8.8 3 Nordeste 5 Noroeste 0 956.4 0.1 88
2019-06-09 06:00:00 9.9 5 Noroeste 8 Sur 0 956.4 -0.1 85
2019-06-09 05:00:00 10.2 3 Sur 6 Sudeste 0 956.3 -0.4 84
2019-06-09 04:00:00 10.8 2 Sur 8 Sudeste 0 956.3 -0.8 81
2019-06-09 03:00:00 10.7 3 Sudeste 4 Este 0 956.5 -1 82
2019-06-09 02:00:00 11.8 3 Sudeste 6 Sudoeste 0 956.7 -0.7 77
2019-06-09 01:00:00 13.2 4 Sudoeste 10 Sudoeste 0 957.1 0.3 70
2019-06-09 00:00:00 14 5 Sudoeste 10 Sur 0 957.5 1.3 67
2019-06-08 23:00:00 14.7 4 Sudoeste 13 Oeste 0 957.4 1.3 63
2019-06-08 22:00:00 15.5 9 Oeste 21 Noroeste 0 956.8 0.7 59
2019-06-08 21:00:00 17.2 10 Noroeste 19 Oeste 0 956.2 0 54
2019-06-08 20:00:00 18.2 6 Oeste 24 Noroeste 0 956.1 -0.4 50
2019-06-08 19:00:00 19.4 17 Oeste 26 Oeste 0 956.1 -0.9 45
2019-06-08 18:00:00 21 8 Oeste 18 Noroeste 0 956.2 -1.4 37
2019-06-08 17:00:00 21.4 7 Oeste 19 Oeste 0 956.5 -1.7 37
2019-06-08 16:00:00 20.5 10 Oeste 23 Oeste 0 957 -2.1 39
2019-06-08 15:00:00 19.2 9 Oeste 26 Oeste 0 957.6 -2.5 43
2019-06-08 14:00:00 18.2 6 Noroeste 19 Oeste 0 958.2 -2.4 51
2019-06-08 13:00:00 15.3 6 Oeste 14 Oeste 0 959.1 -2.1 63
2019-06-08 12:00:00 12.1 6 Noroeste 15 Oeste 0 960.1 -1.4 74
2019-06-08 11:00:00 10.4 5 Oeste 11 Noroeste 0 960.6 -0.8 79
2019-06-08 10:00:00 8.5 5 Sudoeste 9 Oeste 0 961.2 -0.1 86
2019-06-08 09:00:00 7.4 2 Sur 9 Sur 0 961.5 0.2 89
2019-06-08 08:00:00 6.9 5 Sur 10 Sur 0 961.4 0.4 89
2019-06-08 07:00:00 6.8 2 Norte 5 Norte 0 961.3 0.5 91
2019-06-08 06:00:00 6.8 3 Sudeste 5 Sudeste 0 961.3 0.4 91
2019-06-08 05:00:00 6.1 2 Sudeste 4 Este 0 961 0 94
2019-06-08 04:00:00 6.7 2 Noroeste 6 Norte 0 960.8 -0.3 91
2019-06-08 03:00:00 7.4 3 Este 10 Sudeste 0 960.9 0.1 89
2019-06-08 02:00:00 8.1 0 Calma 6 Sudeste 0 961 0.5 89
2019-06-08 01:00:00 8 2 Norte 5 Este 0 961.1 1.4 88
2019-06-08 00:00:00 8.6 3 Este 7 Sudeste 0 960.8 1.3 86
2019-06-07 23:00:00 9.8 3 Este 5 Este 0 960.5 1.5 83
2019-06-07 22:00:00 10.8 3 Sudeste 18 Norte 0.2 959.7 0.9 77
2019-06-07 21:00:00 12.8 9 Noroeste 21 Noroeste 0.4 959.5 1.1 70
2019-06-07 20:00:00 14.1 3 Norte 12 Sudoeste 0 959 1.5 55
2019-06-07 19:00:00 12.6 5 Sudoeste 15 Noroeste 0 958.8 1.1 66
2019-06-07 18:00:00 12.6 8 Noroeste 48 Oeste 0 958.4 2.6 68
2019-06-07 17:00:00 14.2 7 Sudoeste 13 Sudoeste 0 957.5 1.8 52
2019-06-07 16:00:00 11.4 8 Oeste 39 Oeste 0.2 957.7 2.1 65
2019-06-07 15:00:00 15.4 9 Oeste 27 Oeste 0 955.8 1.1 43
2019-06-07 14:00:00 14.7 12 Oeste 27 Noroeste 0 955.7 1.7 47
2019-06-07 13:00:00 12.1 9 Oeste 34 Noroeste 0 955.6 2.2 61
2019-06-07 12:00:00 11.8 10 Oeste 26 Oeste 0 954.7 2 59
2019-06-07 11:00:00 10.5 9 Oeste 20 Oeste 0 954 2.3 67
2019-06-07 10:00:00 9.9 8 Sudoeste 21 Sudoeste 0 953.4 2.6 70
2019-06-07 09:00:00 8.7 8 Oeste 28 Oeste 0 952.7 2.9 75
2019-06-07 08:00:00 8.2 7 Oeste 27 Sudoeste 0 951.7 2.5 77
2019-06-07 07:00:00 8.1 12 Oeste 26 Sudoeste 0 950.8 2.3 81
2019-06-07 06:00:00 8 9 Oeste 18 Sudoeste 0 949.8 2.6 83
2019-06-07 05:00:00 8.1 7 Oeste 15 Oeste 0 949.2 2.7 84
2019-06-07 04:00:00 8.3 7 Noroeste 27 Oeste 1 948.5 2.4 89
2019-06-07 03:00:00 9 9 Oeste 28 Sudoeste 0 947.2 1.9 78
2019-06-07 02:00:00 9.3 11 Oeste 26 Sudoeste 0 946.5 2 78
2019-06-07 01:00:00 9.5 12 Oeste 31 Oeste 0 946.1 2.3 79
2019-06-07 00:00:00 9.8 10 Oeste 30 Noroeste 0 945.3 2.2 80
2019-06-06 23:00:00 10.1 3 Este 16 Noroeste 0 944.5 1.7 80
2019-06-06 22:00:00 11.4 3 Noroeste 17 Oeste 0 943.8 2.7 73
2019-06-06 21:00:00 13 6 Sudoeste 20 Oeste 0.2 943.1 1.9 75
2019-06-06 20:00:00 12 10 Oeste 24 Oeste 4.8 942.8 0.6 85
2019-06-06 19:00:00 12.6 6 Norte 17 Nordeste 0.6 941.1 -1.9 85
2019-06-06 18:00:00 12.9 4 Nordeste 24 Nordeste 4.6 941.2 -2.7 83
2019-06-06 17:00:00 16.1 11 Sudoeste 34 Sur 0.2 942.2 -2.4 50
2019-06-06 16:00:00 15.3 8 Sur 30 Sudeste 0.2 943 -2.4 56
2019-06-06 15:00:00 16.6 9 Sur 32 Sudoeste 0 943.9 -3 43
2019-06-06 14:00:00 16.5 10 Sur 26 Sur 0 944.6 -3.6 42
2019-06-06 13:00:00 15.7 6 Noroeste 13 Oeste 0 945.4 -3.9 48
2019-06-06 12:00:00 13.8 5 Oeste 18 Sudoeste 0 946.9 -3.3 60
2019-06-06 11:00:00 12.1 9 Oeste 17 Oeste 0 948.2 -2.6 69
2019-06-06 10:00:00 10.3 3 Norte 7 Nordeste 0 949.3 -2.2 75
2019-06-06 09:00:00 7.4 4 Sudoeste 10 Oeste 0 950.2 -1.7 87
2019-06-06 08:00:00 6.7 2 Oeste 5 Este 0 950.8 -1.4 90
2019-06-06 07:00:00 6.2 4 Noroeste 10 Sur 0 951.5 -1.2 90
2019-06-06 06:00:00 6.3 0 Calma 4 Sur 0 951.9 -1.2 92
2019-06-06 05:00:00 6.2 0 Calma 6 Norte 0 952.2 -1.2 90
2019-06-06 04:00:00 6.1 0 Calma 4 Sudeste 0 952.7 -1 90
2019-06-06 03:00:00 6.4 2 Sudeste 5 Sudeste 0 953.1 -0.6 91
2019-06-06 02:00:00 7.2 0 Calma 7 Sudeste 0 953.4 -0.2 88
2019-06-06 01:00:00 8 3 Sudeste 6 Sudeste 0 953.7 0.5 88
2019-06-06 00:00:00 9.1 3 Sudeste 8 Norte 0 953.7 0.4 86
2019-06-05 23:00:00 9.8 3 Norte 8 Este 0 953.6 0.4 84
2019-06-05 22:00:00 10 5 Sudeste 9 Sudeste 0 953.2 0.4 82
2019-06-05 21:00:00 10.3 7 Sudeste 12 Sudeste 0 953.3 0.8 80
2019-06-05 20:00:00 10.9 2 Noroeste 25 Norte 0.6 953.2 0.5 75
2019-06-05 19:00:00 13.5 12 Oeste 32 Oeste 0 952.8 0.3 51
2019-06-05 18:00:00 13.9 12 Oeste 27 Noroeste 0 952.5 0.2 53
2019-06-05 17:00:00 13 9 Oeste 34 Oeste 0 952.7 -0.4 64
2019-06-05 16:00:00 14.5 13 Sudoeste 32 Sudoeste 0 952.5 0 54
2019-06-05 15:00:00 14.7 7 Sur 19 Sudoeste 0 952.3 -0.6 52
2019-06-05 14:00:00 12.3 9 Oeste 34 Noroeste 0.8 953.1 0.7 67
2019-06-05 13:00:00 13.7 8 Sudoeste 22 Noroeste 0 952.5 0.1 57
2019-06-05 12:00:00 11.8 12 Oeste 30 Noroeste 1.2 952.9 1.1 70
2019-06-05 11:00:00 11.7 10 Oeste 19 Oeste 0 952.4 0.9 67
2019-06-05 10:00:00 10.7 8 Oeste 20 Oeste 0 952.4 1.4 75
2019-06-05 09:00:00 10.3 8 Oeste 15 Oeste 0 951.8 1 80
2019-06-05 08:00:00 9.8 8 Oeste 17 Noroeste 0 951.5 0.9 83
2019-06-05 07:00:00 9.9 5 Oeste 15 Oeste 0 951 0.3 82
2019-06-05 06:00:00 10.3 7 Oeste 14 Oeste 0.2 950.8 -0.1 80
2019-06-05 05:00:00 10.3 6 Oeste 17 Oeste 0 950.6 -0.3 76
2019-06-05 04:00:00 10.3 7 Oeste 17 Oeste 0 950.7 -0.3 70
2019-06-05 03:00:00 10.4 7 Oeste 24 Noroeste 0 950.9 -0.1 72
2019-06-05 02:00:00 11.1 14 Oeste 30 Oeste 0.2 950.9 -0.1 71
2019-06-05 01:00:00 12 7 Oeste 20 Oeste 0 951 0.8 68
2019-06-05 00:00:00 12.3 8 Oeste 18 Oeste 0 951 1.5 65
2019-06-04 23:00:00 12.9 9 Oeste 26 Noroeste 0 951 2.2 62
2019-06-04 22:00:00 14.2 10 Oeste 22 Noroeste 0 950.2 1.4 58
2019-06-04 21:00:00 16.3 14 Noroeste 33 Noroeste 0 949.5 0.3 53
2019-06-04 20:00:00 19.8 10 Oeste 27 Sudoeste 0 948.8 -0.9 38
2019-06-04 19:00:00 20.2 10 Oeste 21 Noroeste 0 948.8 -1.7 36
2019-06-04 18:00:00 19.6 10 Noroeste 24 Noroeste 0 949.2 -1.2 39
2019-06-04 17:00:00 18.8 9 Oeste 21 Sur 0 949.7 -0.4 45
2019-06-04 16:00:00 16 6 Sudoeste 25 Sudoeste 0 950.5 0.8 58
2019-06-04 15:00:00 16.3 8 Oeste 21 Sudoeste 0.2 950.4 0.8 70
2019-06-04 14:00:00 16.2 12 Oeste 32 Oeste 0 950.1 1 78
2019-06-04 13:00:00 18.1 17 Oeste 35 Oeste 0 949.7 0.4 63
2019-06-04 12:00:00 17.3 10 Oeste 25 Noroeste 0 949.6 0 64
2019-06-04 11:00:00 17.9 4 Noroeste 12 Nordeste 0 949.1 -0.8 55
2019-06-04 10:00:00 16.2 4 Nordeste 8 Este 0 949.3 0.1 61
2019-06-04 09:00:00 14.7 4 Sur 10 Sudoeste 0 949.6 0.4 65
2019-06-04 08:00:00 14 5 Sudoeste 9 Sudoeste 0 949.9 0.5 72
2019-06-04 07:00:00 13.9 6 Oeste 14 Oeste 0 949.2 -0.5 72
2019-06-04 06:00:00 14.3 7 Oeste 13 Oeste 0 949.2 -1 73
2019-06-04 05:00:00 15 5 Noroeste 13 Norte 0 949.4 -1.1 72
2019-06-04 04:00:00 15.5 3 Norte 15 Noroeste 0 949.7 -1.5 72
2019-06-04 03:00:00 16.2 8 Oeste 18 Noroeste 0 950.2 -1.1 72
2019-06-04 02:00:00 17 8 Oeste 13 Oeste 0 950.5 -1 71
2019-06-04 01:00:00 17.7 6 Noroeste 11 Oeste 0 951.2 0 70
2019-06-04 00:00:00 18.7 7 Oeste 13 Oeste 0 951.3 0.1 67
2019-06-03 23:00:00 19.8 9 Oeste 15 Oeste 0 951.5 0.7 63
2019-06-03 22:00:00 21.4 6 Noroeste 24 Noroeste 0 951.2 0.4 57
2019-06-03 21:00:00 23.1 14 Noroeste 26 Noroeste 0 951.2 0.1 51
2019-06-03 20:00:00 24.9 14 Oeste 30 Oeste 0 950.8 -0.3 47
2019-06-03 19:00:00 26 18 Oeste 31 Noroeste 0 950.8 -0.9 43
2019-06-03 18:00:00 27.1 18 Oeste 35 Oeste 0 951.1 -1.5 38
2019-06-03 17:00:00 27.9 13 Oeste 28 Oeste 0 951.1 -2.2 37
2019-06-03 16:00:00 27.6 11 Noroeste 23 Noroeste 0 951.7 -2.4 36
2019-06-03 15:00:00 26.8 12 Oeste 25 Noroeste 0 952.6 -2.1 39
2019-06-03 14:00:00 25.3 9 Noroeste 23 Noroeste 0 953.3 -2 41
2019-06-03 13:00:00 24.4 8 Noroeste 19 Noroeste 0 954.1 -1.3 43
2019-06-03 12:00:00 23.5 5 Norte 13 Noroeste 0 954.7 -0.9 42
2019-06-03 11:00:00 21.2 4 Norte 11 Norte 0 955.3 -0.2 44
2019-06-03 10:00:00 19.1 3 Noroeste 8 Noroeste 0 955.4 0.2 49
2019-06-03 09:00:00 18.1 0 Calma 8 Sudoeste 0 955.6 0.7 54
2019-06-03 08:00:00 17.1 2 Noroeste 8 Oeste 0 955.5 0.8 57
2019-06-03 07:00:00 17.2 0 Calma 4 Sudeste 0 955.2 0.1 58
2019-06-03 06:00:00 17.2 0 Calma 5 Este 0 954.9 -0.4 57
2019-06-03 05:00:00 17.9 0 Calma 8 Noroeste 0 954.7 -0.6 53
2019-06-03 04:00:00 18.9 4 Noroeste 12 Oeste 0 955.1 -0.4 48
2019-06-03 03:00:00 19.3 3 Noroeste 14 Oeste 0 955.3 -0.1 47
2019-06-03 02:00:00 20.1 3 Sudoeste 9 Noroeste 0 955.3 0.1 45
2019-06-03 01:00:00 19.4 3 Oeste 6 Oeste 0 955.5 0.8 48
2019-06-03 00:00:00 20.4 4 Noroeste 8 Noroeste 0 955.4 0.9 42
2019-06-02 23:00:00 22.5 0 Calma 10 Noroeste 0 955.2 0.9 35
2019-06-02 22:00:00 23.8 5 Noroeste 16 Sudoeste 0 954.7 0.3 31
2019-06-02 21:00:00 25.5 8 Oeste 18 Oeste 0 954.5 -0.1 32
2019-06-02 20:00:00 26.9 11 Oeste 18 Oeste 0 954.3 -0.2 28
2019-06-02 19:00:00 27.1 10 Noroeste 20 Noroeste 0 954.4 -0.6 26
2019-06-02 18:00:00 27.9 8 Noroeste 21 Noroeste 0 954.6 -0.9 24
2019-06-02 17:00:00 28.5 8 Oeste 14 Noroeste 0 954.5 -1.6 24
2019-06-02 16:00:00 27.9 6 Nordeste 19 Noroeste 0 955 -1.7 25
2019-06-02 15:00:00 27.5 6 Noroeste 15 Noroeste 0 955.5 -1.4 27
2019-06-02 14:00:00 26.3 6 Oeste 16 Oeste 0 956.1 -1 29
2019-06-02 13:00:00 24.7 3 Oeste 10 Nordeste 0 956.7 -0.6 33
2019-06-02 12:00:00 21.8 5 Oeste 12 Oeste 0 956.9 -0.3 41
2019-06-02 11:00:00 18.6 6 Oeste 10 Oeste 0 957.1 -0.1 51
2019-06-02 10:00:00 15.5 4 Oeste 9 Noroeste 0 957.3 0.5 63
2019-06-02 09:00:00 15.2 0 Calma 8 Sudeste 0 957.2 0.8 58
2019-06-02 08:00:00 13.8 0 Calma 3 Este 0 957.2 0.7 68
2019-06-02 07:00:00 13 0 Calma 4 Norte 0 956.8 0.2 68
2019-06-02 06:00:00 13.5 2 Sudeste 5 Sudeste 0 956.4 -0.2 66
2019-06-02 05:00:00 14.9 3 Noroeste 5 Noroeste 0 956.5 -0.3 61
2019-06-02 04:00:00 15.8 2 Sudeste 6 Sudeste 0 956.6 -0.5 57
2019-06-02 03:00:00 17 0 Calma 8 Sur 0 956.6 -0.5 52
2019-06-02 02:00:00 18.6 2 Sudeste 8 Sur 0 956.8 0.2 48
2019-06-02 01:00:00 20.1 2 Este 6 Este 0 957.1 1.3 45
2019-06-02 00:00:00 22.2 4 Este 12 Oeste 0 957.1 1.8 41
2019-06-01 23:00:00 25.3 6 Oeste 13 Oeste 0 956.6 1.8 31
2019-06-01 22:00:00 27.5 4 Noroeste 20 Noroeste 0 955.8 1.3 25
2019-06-01 21:00:00 30.1 10 Noroeste 26 Noroeste 0 955.3 0.6 20
2019-06-01 20:00:00 31.7 14 Oeste 27 Noroeste 0 954.8 -0.3 22
2019-06-01 19:00:00 32.6 12 Noroeste 23 Noroeste 0 954.5 -1.1 23
2019-06-01 18:00:00 33.1 13 Oeste 25 Noroeste 0 954.7 -1.6 21
2019-06-01 17:00:00 33.5 12 Oeste 27 Sudoeste 0 955.1 -2 19
2019-06-01 16:00:00 33.2 12 Noroeste 24 Noroeste 0 955.6 -2.1 21
2019-06-01 15:00:00 32 10 Noroeste 21 Noroeste 0 956.3 -1.9 22
2019-06-01 14:00:00 30.6 6 Norte 17 Oeste 0 957.1 -1.7 26
2019-06-01 13:00:00 28.1 5 Oeste 16 Noroeste 0 957.7 -1.3 32
2019-06-01 12:00:00 25.3 5 Sudoeste 10 Sudoeste 0 958.2 -0.9 38
2019-06-01 11:00:00 22.6 4 Noroeste 12 Oeste 0 958.8 -0.3 46
2019-06-01 10:00:00 20.1 5 Oeste 9 Noroeste 0 959 0.3 51
2019-06-01 09:00:00 18.3 3 Sur 6 Este 0 959.1 0.6 55
2019-06-01 08:00:00 15.2 0 Calma 3 Nordeste 0 959.1 0.5 66
2019-06-01 07:00:00 15 3 Noroeste 5 Sudeste 0 958.7 0.2 64
2019-06-01 06:00:00 15.2 3 Sudeste 5 Este 0 958.5 0 65
2019-06-01 05:00:00 16.1 0 Calma 4 Este 0 958.6 0.3 62
2019-06-01 04:00:00 17.8 2 Noroeste 14 Sudeste 0 958.5 0 57
2019-06-01 03:00:00 19.1 7 Sur 13 Sur 0 958.5 0.2 52
2019-06-01 02:00:00 20.1 0 Calma 8 Sur 0 958.3 0.6 51
2019-06-01 01:00:00 20.7 3 Este 5 Nordeste 0 958.5 1.5 50
2019-06-01 00:00:00 22.6 4 Sudeste 7 Sur 0 958.3 1.7 46
2019-05-31 23:00:00 25.1 2 Este 9 Oeste 0 957.7 1.1 40
2019-05-31 22:00:00 29.1 4 Oeste 14 Noroeste 0 957 0 30
2019-05-31 21:00:00 32.7 5 Oeste 14 Sudoeste 0 956.6 -0.8 17
2019-05-31 20:00:00 33.6 6 Sudoeste 13 Noroeste 0 956.6 -1.4 13
2019-05-31 19:00:00 33.5 5 Noroeste 17 Noroeste 0 957 -1.6 14
2019-05-31 18:00:00 33.7 6 Noroeste 14 Oeste 0 957.4 -1.9 14
2019-05-31 17:00:00 33.1 5 Oeste 16 Oeste 0 958 -1.9 13
2019-05-31 16:00:00 32.5 7 Oeste 15 Oeste 0 958.6 -1.9 16
2019-05-31 15:00:00 31 7 Noroeste 17 Oeste 0 959.3 -1.6 22
2019-05-31 14:00:00 29.7 5 Noroeste 13 Noroeste 0 959.9 -1.5 26
2019-05-31 13:00:00 27.3 6 Oeste 14 Oeste 0 960.5 -1.4 31
2019-05-31 12:00:00 25.2 5 Oeste 12 Oeste 0 960.9 -1.1 39
2019-05-31 11:00:00 22.1 5 Oeste 10 Sudoeste 0 961.4 -0.5 46
2019-05-31 10:00:00 20 3 Sudoeste 8 Oeste 0 961.9 0.2 52
2019-05-31 09:00:00 17.7 5 Oeste 7 Oeste 0 962 0.6 58
2019-05-31 08:00:00 15.1 2 Este 3 Este 0 961.9 0.4 70
2019-05-31 07:00:00 14.1 3 Este 5 Este 0 961.7 0.2 71
2019-05-31 06:00:00 15.3 0 Calma 6 Este 0 961.4 -0.2 65
2019-05-31 05:00:00 16.6 2 Noroeste 5 Oeste 0 961.5 0 61
2019-05-31 04:00:00 17.9 2 Noroeste 8 Oeste 0 961.5 0 57
2019-05-31 03:00:00 20.1 5 Noroeste 21 Este 0 961.6 0.4 50
2019-05-31 02:00:00 21.8 12 Este 19 Este 0 961.5 0.8 41
2019-05-31 01:00:00 21.9 8 Este 13 Sudeste 0 961.5 1.9 38
2019-05-31 00:00:00 22.7 6 Este 10 Sudeste 0 961.2 2.1 36
2019-05-30 23:00:00 24.7 8 Sudeste 19 Nordeste 0 960.7 1.8 38
2019-05-30 22:00:00 26.9 4 Norte 20 Nordeste 0 959.6 0.2 33
2019-05-30 21:00:00 30.5 3 Este 17 Oeste 0 959.1 -0.7 26
2019-05-30 20:00:00 31.8 8 Oeste 19 Noroeste 0 958.9 -1.4 23
2019-05-30 19:00:00 32.2 9 Oeste 18 Oeste 0 959.4 -1.3 21
2019-05-30 18:00:00 32.1 4 Noroeste 16 Oeste 0 959.8 -1.6 21
2019-05-30 17:00:00 31.8 5 Nordeste 18 Norte 0 960.3 -1.8 21
2019-05-30 16:00:00 30.9 7 Oeste 15 Oeste 0 960.7 -2 22
2019-05-30 15:00:00 28.9 6 Oeste 15 Noroeste 0 961.4 -1.9 26
2019-05-30 14:00:00 26.7 5 Noroeste 13 Oeste 0 962.1 -1.7 29
2019-05-30 13:00:00 24.3 5 Noroeste 13 Oeste 0 962.7 -1.4 35
2019-05-30 12:00:00 21.7 5 Oeste 13 Oeste 0 963.3 -0.8 42
2019-05-30 11:00:00 19.1 5 Oeste 12 Oeste 0 963.8 0 47
2019-05-30 10:00:00 17.3 3 Oeste 6 Oeste 0 964.1 0.6 52
2019-05-30 09:00:00 14.7 3 Oeste 6 Sudoeste 0 964.1 0.9 62
2019-05-30 08:00:00 12.4 2 Nordeste -- -- -- 963.8 0.9 71
2019-05-30 07:00:00 11.4 2 Este 5 Este 0 963.5 0.7 72
2019-05-30 06:00:00 12.2 2 Este 5 Este 0 963.2 0.5 70
2019-05-30 05:00:00 13.4 2 Este 5 Nordeste 0 962.9 0.2 65
2019-05-30 04:00:00 15.4 2 Noroeste 7 Noroeste 0 962.8 0.4 58
2019-05-30 03:00:00 16.7 4 Noroeste 9 Oeste 0 962.7 0.4 55
2019-05-30 02:00:00 18.4 5 Oeste 21 Este 0 962.7 1.3 49
2019-05-30 01:00:00 20.3 11 Este 22 Este 0 962.4 2 39
2019-05-30 00:00:00 20.6 8 Este 20 Sudeste 0 962.3 2.6 35
2019-05-29 23:00:00 21.5 6 Sudeste 11 Sudeste 0 961.4 1.9 44
2019-05-29 22:00:00 25 5 Oeste 12 Noroeste 0 960.4 0.9 35
2019-05-29 21:00:00 27.3 8 Noroeste 15 Noroeste 0 959.7 0.1 30
2019-05-29 20:00:00 28.8 8 Oeste 17 Sudoeste 0 959.5 -0.6 26
2019-05-29 19:00:00 28.8 7 Noroeste -- -- -- 959.5 -0.9 26
2019-05-29 18:00:00 28.6 8 Oeste 17 Sudoeste 0 959.6 -1.4 25
2019-05-29 17:00:00 28.3 8 Noroeste 15 Noroeste 0 960.1 -1.3 26
2019-05-29 16:00:00 27.2 5 Sur 15 Oeste 0 960.4 -1.6 26
2019-05-29 15:00:00 25.5 7 Oeste 16 Noroeste 0 961 -1.3 30
2019-05-29 14:00:00 22.7 8 Noroeste 14 Noroeste 0 961.4 -1.3 34
2019-05-29 13:00:00 20.3 5 Noroeste 13 Oeste 0 962 -1.2 39
2019-05-29 12:00:00 17.8 4 Oeste 13 Oeste 0 962.3 -1 44
2019-05-29 11:00:00 15.8 4 Sudoeste 11 Oeste 0 962.7 -0.3 51
2019-05-29 10:00:00 13.3 4 Noroeste -- -- -- 963.2 0.7 58
2019-05-29 09:00:00 11.4 3 Sudeste 7 Sudeste 0 963.3 1.1 63
2019-05-29 08:00:00 8.5 0 Calma 4 Este 0 963 1.2 77
2019-05-29 07:00:00 7.7 0 Calma -- -- -- 962.5 0.5 77
2019-05-29 06:00:00 8.1 4 Sur 6 Sudeste 0 962.2 0.8 76
2019-05-29 05:00:00 8.7 0 Calma 10 Sur 0 961.8 0.2 72
2019-05-29 04:00:00 9.8 6 Sudeste 10 Sudeste 0 962 0.6 70
2019-05-29 03:00:00 11.1 4 Sur 8 Sudeste 0 961.4 0.4 63
2019-05-29 02:00:00 11.8 3 Este 8 Sudeste 0 961.6 1.2 61
2019-05-29 01:00:00 12.6 2 Noroeste 7 Sudeste 0 961.4 1.6 58
2019-05-29 00:00:00 13.3 6 Este 8 Sudeste 0 961 2 55
2019-05-28 23:00:00 15.5 6 Oeste 16 Noroeste 0 960.4 2.1 48
2019-05-28 22:00:00 17 9 Noroeste 18 Noroeste 0 959.8 1.9 43
2019-05-28 21:00:00 19.3 7 Noroeste 25 Noroeste 0 959 1.5 36
2019-05-28 20:00:00 21.3 8 Norte 26 Norte 0 958.3 0.9 32
2019-05-28 19:00:00 22.5 10 Norte 39 Norte 0 957.9 0.5 25
2019-05-28 18:00:00 23.4 9 Norte 32 Norte 0 957.5 -0.1 24
2019-05-28 17:00:00 23.5 10 Norte 32 Nordeste 0 957.4 -0.6 24
2019-05-28 16:00:00 23.6 12 Norte 28 Norte 0 957.4 -0.9 24
2019-05-28 15:00:00 22.5 8 Nordeste 17 Oeste 0 957.6 -0.9 30
2019-05-28 14:00:00 20.9 8 Oeste 21 Sudoeste 0 958 -0.7 33
2019-05-28 13:00:00 18.9 8 Sudoeste 18 Oeste 0 958.3 -0.6 36
2019-05-28 12:00:00 16.5 8 Oeste 14 Oeste 0 958.5 -0.1 42
2019-05-28 11:00:00 14.2 5 Oeste 13 Oeste 0 958.7 0.7 55
2019-05-28 10:00:00 12.1 5 Oeste 10 Sur 0 958.9 1.2 66
2019-05-28 09:00:00 10.3 4 Oeste 12 Noroeste 0 958.6 1.8 74
2019-05-28 08:00:00 8.7 3 Sudeste 13 Sudeste 0 958 -- 76
2019-05-28 07:00:00 8.3 3 Sudeste 9 Sudoeste 0 957.7 1.2 78
2019-05-28 06:00:00 9.1 2 Este -- -- -- 956.8 0.7 75
2019-05-28 05:00:00 -- -- -- -- -- -- -- -- --
2019-05-28 04:00:00 10.7 4 Sudoeste 12 Oeste 0 956.5 0.4 70
2019-05-28 03:00:00 11.4 4 Sudoeste 11 Sudeste 0 956.1 0 68
2019-05-28 02:00:00 12.5 4 Sudoeste 12 Sudoeste 0 956.1 0.3 65
2019-05-28 01:00:00 13.6 6 Sudoeste 14 Sudoeste 0 956.1 1.1 63
2019-05-28 00:00:00 14.9 4 Oeste 15 Oeste 0 956.1 1.5 62
2019-05-27 23:00:00 16.3 7 Oeste 14 Noroeste 0 955.8 1.9 56
2019-05-27 22:00:00 18.5 9 Noroeste 21 Noroeste 0 955 1.6 30
2019-05-27 21:00:00 20.7 4 Norte 20 Norte 0 954.6 1.2 39
2019-05-27 20:00:00 22.5 10 Norte 23 Nordeste 0 953.9 -- 37
2019-05-27 19:00:00 23.9 14 Oeste 37 Oeste 0 953.4 -0.4 35
2019-05-27 18:00:00 24.7 17 Oeste -- -- -- 953.4 -- 35
2019-05-27 17:00:00 -- -- -- -- -- -- -- -- --
2019-05-27 16:00:00 24.5 7 Oeste 23 Noroeste 0 953.8 -1.4 34
2019-05-27 15:00:00 -- -- -- -- -- -- -- -- --
2019-05-27 14:00:00 22.5 17 Oeste -- -- -- 954.8 -0.9 45
2019-05-27 13:00:00 21.9 11 Oeste -- -- -- 955.2 -1 48
2019-05-27 12:00:00 21.1 8 Oeste -- -- -- 955.4 -0.6 48
2019-05-27 11:00:00 18.9 4 Noroeste 12 Noroeste 0 955.7 -0.6 56
2019-05-27 10:00:00 16.2 2 Sudoeste 9 Oeste 0 956.2 0.1 67
2019-05-27 09:00:00 15.4 4 Sur 6 Sur 0 956 0.1 66
2019-05-27 08:00:00 12.3 4 Sudeste 6 Sudeste 0 956.3 0 79
2019-05-27 07:00:00 12.3 2 Este 8 Sur 0 956.1 -0.4 77
2019-05-27 06:00:00 13.6 4 Sudeste 8 Sudeste 0 955.9 -0.9 72
2019-05-27 05:00:00 13 5 Sudeste 8 Sudeste 0 956.3 -0.4 75
2019-05-27 04:00:00 14 3 Este 9 Sudeste 0 956.5 -0.5 71
2019-05-27 03:00:00 14.8 3 Sudeste 5 Sudoeste 0 956.8 -0.6 69
2019-05-27 02:00:00 16.1 4 Sudeste 7 Sudoeste 0 956.7 -0.4 64
2019-05-27 01:00:00 17.6 4 Sudoeste 14 Sudoeste 0 957 0.6 59
2019-05-27 00:00:00 18.5 5 Sudoeste 14 Sudoeste 0 957.4 1.4 57
2019-05-26 23:00:00 20 4 Sudoeste 13 Oeste 0 957.1 1.5 53
2019-05-26 22:00:00 22 6 Oeste 17 Oeste 0 956.4 0.7 47
2019-05-26 21:00:00 24.5 7 Oeste 23 Noroeste 0 956 0.2 40
2019-05-26 20:00:00 26.9 13 Noroeste 31 Oeste 0 955.6 -0.6 28
2019-05-26 19:00:00 28 15 Oeste 31 Noroeste 0 955.7 -0.8 26
2019-05-26 18:00:00 29.1 6 Norte 24 Sudoeste 0 955.8 -1.1 19
2019-05-26 17:00:00 28.1 14 Oeste 28 Oeste 0 956.2 -1.6 29
2019-05-26 16:00:00 28.1 11 Oeste 22 Oeste 0 956.5 -2.4 28
2019-05-26 15:00:00 26.7 5 Oeste 18 Noroeste 0 956.9 -2.6 28
2019-05-26 14:00:00 24.9 8 Oeste 18 Sudoeste 0 957.8 -2.1 34
2019-05-26 13:00:00 21.9 6 Oeste 13 Noroeste 0 958.9 -1.6 45
2019-05-26 12:00:00 19 6 Oeste 13 Noroeste 0 959.5 -1.3 54
2019-05-26 11:00:00 16.5 5 Noroeste 10 Noroeste 0 959.9 -0.7 62
2019-05-26 10:00:00 14.3 4 Sudoeste 9 Oeste 0 960.5 0.2 68
2019-05-26 09:00:00 12.4 3 Oeste 6 Noroeste 0 960.8 0.8 74
2019-05-26 08:00:00 10.1 2 Norte 6 Norte 0 960.6 0.2 82
2019-05-26 07:00:00 9.6 4 Sudeste 8 Sudeste 0 960.3 0 82
2019-05-26 06:00:00 10.5 0 Calma 5 Noroeste 0 960 -0.2 79
2019-05-26 05:00:00 11.1 0 Calma 6 Sur 0 960.4 0.1 76
2019-05-26 04:00:00 11.9 3 Sudeste 5 Sur 0 960.3 -0.1 73
2019-05-26 03:00:00 13.3 3 Este 7 Sudeste 0 960.2 -0.1 67
2019-05-26 02:00:00 15 4 Sudeste 12 Sudoeste 0 960.3 0.5 62
2019-05-26 01:00:00 16 4 Sudoeste 13 Sudoeste 0 960.4 1.3 58
2019-05-26 00:00:00 16.5 3 Sudoeste 9 Norte 0 960.3 2.1 57
2019-05-25 23:00:00 18.8 7 Nordeste 15 Nordeste 0 959.8 2.1 47
2019-05-25 22:00:00 20.8 6 Nordeste 17 Nordeste 0 959.1 1.3 41
2019-05-25 21:00:00 23.5 4 Este 19 Noroeste 0 958.2 0.6 36
2019-05-25 20:00:00 25.3 6 Norte 21 Norte 0 957.7 0 33
2019-05-25 19:00:00 25.7 9 Norte 24 Nordeste 0 957.8 -0.3 31
2019-05-25 18:00:00 26.1 7 Oeste 23 Oeste 0 957.6 -1.2 31
2019-05-25 17:00:00 25.9 11 Oeste 19 Oeste 0 957.7 -1.7 30
2019-05-25 16:00:00 25 6 Sudoeste 20 Sudoeste 0 958.1 -1.9 28
2019-05-25 15:00:00 23.5 6 Oeste 18 Sudoeste 0 958.8 -1.6 29
2019-05-25 14:00:00 21.5 9 Oeste 17 Oeste 0 959.4 -1.4 30
2019-05-25 13:00:00 19.3 6 Oeste 13 Noroeste 0 960 -1 36
2019-05-25 12:00:00 16.8 8 Oeste 15 Oeste 0 960.4 -0.6 45
2019-05-25 11:00:00 15.3 7 Noroeste 13 Noroeste 0 960.8 0 53
2019-05-25 10:00:00 12.5 6 Noroeste 12 Oeste 0 961 0.7 65
2019-05-25 09:00:00 11.3 3 Sudoeste 7 Sudeste 0 961 0.7 71
2019-05-25 08:00:00 8.7 2 Norte 7 Este 0 960.8 1 79
2019-05-25 07:00:00 7.7 4 Sudeste 6 Sudeste 0 960.3 0.2 80
2019-05-25 06:00:00 8.5 2 Este 7 Sudeste 0 960.3 0.1 78
2019-05-25 05:00:00 9.3 3 Sudeste 8 Sudeste 0 959.8 -0.3 75
2019-05-25 04:00:00 10.1 3 Sudeste 6 Sur 0 960.1 0.1 73
2019-05-25 03:00:00 11 3 Sudeste 9 Este 0 960.2 0.6 71
2019-05-25 02:00:00 11.2 4 Nordeste 8 Este 0 960.1 1 70
2019-05-25 01:00:00 12.5 2 Sudeste 8 Oeste 0 960 1.9 61
2019-05-25 00:00:00 14.7 4 Oeste -- -- -- 959.6 2.2 54
2019-05-24 23:00:00 15.5 2 Este -- -- -- 959.1 2.2 53
2019-05-24 22:00:00 17.2 4 Norte 17 Oeste 0 958.1 1.3 47
2019-05-24 21:00:00 19.6 6 Norte 20 Nordeste 0 957.4 0.9 36
2019-05-24 20:00:00 20.1 8 Noroeste 24 Norte 0 956.9 0.5 37
2019-05-24 19:00:00 21.3 8 Norte 30 Norte 0 956.8 0.1 33
2019-05-24 18:00:00 22.3 9 Norte 24 Norte 0 956.5 -0.8 28
2019-05-24 17:00:00 22.9 7 Norte 21 Noroeste 0 956.4 -1.3 28
2019-05-24 16:00:00 22 8 Norte 22 Nordeste 0 956.7 -1.3 30
2019-05-24 15:00:00 21.5 9 Norte 22 Noroeste 0 957.3 -1 31
2019-05-24 14:00:00 19.7 10 Oeste 20 Noroeste 0 957.7 -0.8 39
2019-05-24 13:00:00 18 9 Oeste 20 Noroeste 0 958 -0.8 42
2019-05-24 12:00:00 16.6 7 Oeste 15 Oeste 0 958.3 -0.6 43
2019-05-24 11:00:00 14.8 6 Sudoeste 14 Sudoeste 0 958.5 -0.2 49
2019-05-24 10:00:00 12.5 8 Oeste 14 Oeste 0 958.8 0.6 58
2019-05-24 09:00:00 11.1 4 Sudoeste 10 Sudeste 0 958.9 1.2 66
2019-05-24 08:00:00 8.4 5 Sudeste 10 Sudeste 0 958.7 1.2 77
2019-05-24 07:00:00 7.7 2 Sudeste 6 Sudeste 0 958.2 0.6 79
2019-05-24 06:00:00 8.8 4 Sudeste 6 Oeste 0 957.7 -0.1 75
2019-05-24 05:00:00 10.4 5 Sudoeste 13 Sudoeste 0 957.5 -0.4 69
2019-05-24 04:00:00 10.9 3 Sudeste 14 Sudoeste 0 957.6 -0.6 68
2019-05-24 03:00:00 11.9 7 Oeste 15 Oeste 0 957.8 0.1 63
2019-05-24 02:00:00 12.9 7 Oeste 13 Oeste 0 957.9 0.5 63
2019-05-24 01:00:00 13.5 6 Sudoeste 12 Sudoeste 0 958.2 1.2 66
2019-05-24 00:00:00 14 6 Oeste 16 Oeste 0 957.7 1.1 62
2019-05-23 23:00:00 15.2 6 Oeste 20 Sudoeste 0 957.4 1.7 56
2019-05-23 22:00:00 16.6 8 Oeste 25 Noroeste 0 957 1.5 52
2019-05-23 21:00:00 18.4 16 Oeste 37 Noroeste 0 956.6 1.4 46
2019-05-23 20:00:00 20.7 16 Noroeste 31 Noroeste 0 955.7 0.5 41
2019-05-23 19:00:00 21.4 19 Noroeste 37 Noroeste 0 955.5 0.4 35
2019-05-23 18:00:00 22.1 14 Noroeste 33 Noroeste 0 955.2 0.1 40
2019-05-23 17:00:00 22.5 14 Noroeste 38 Oeste 0 955.2 -0.5 41
2019-05-23 16:00:00 22.9 19 Oeste 35 Oeste 0 955.1 -1.2 41
2019-05-23 15:00:00 23.3 10 Noroeste 27 Noroeste 0 955.1 -1.6 37
2019-05-23 14:00:00 22.5 11 Oeste 24 Oeste 0 955.7 -1.5 38
2019-05-23 13:00:00 21.3 9 Oeste 19 Oeste 0 956.3 -0.8 45
2019-05-23 12:00:00 19.5 4 Sudoeste 14 Oeste 0 956.7 0.3 54
2019-05-23 11:00:00 16.2 5 Oeste 13 Noroeste 0 957.2 1.1 68
2019-05-23 10:00:00 15.1 6 Noroeste 13 Noroeste 0 957.1 1.5 72
2019-05-23 09:00:00 13.9 3 Sudoeste 9 Noroeste 0 956.4 1 74
2019-05-23 08:00:00 13.4 3 Oeste 9 Oeste 0 956.1 0.7 79
2019-05-23 07:00:00 13 2 Sudeste 6 Noroeste 0 955.6 0.2 80
2019-05-23 06:00:00 13.6 2 Sudoeste 8 Sudeste 0 955.4 -0.5 77
2019-05-23 05:00:00 14 4 Sudeste 6 Sudeste 0 955.4 -0.8 77
2019-05-23 04:00:00 15 2 Sudeste 6 Sudoeste 0 955.4 -0.8 73
2019-05-23 03:00:00 15.7 3 Este 5 Este 0 955.9 -0.4 70
2019-05-23 02:00:00 16.9 3 Este 10 Noroeste 0 956.2 0.6 62
2019-05-23 01:00:00 18.9 4 Oeste 15 Oeste 0 956.2 1.6 54
2019-05-23 00:00:00 20.1 8 Oeste 16 Oeste 0 956.3 2.4 50
2019-05-22 23:00:00 21.2 7 Noroeste 18 Oeste 0 955.6 2 48
2019-05-22 22:00:00 21.9 9 Oeste 20 Oeste 0 954.6 1.2 46
2019-05-22 21:00:00 24.3 8 Noroeste 23 Oeste 0 953.9 0.3 36
2019-05-22 20:00:00 25.2 8 Noroeste 23 Noroeste 0 953.6 -0.2 32
2019-05-22 19:00:00 26.6 9 Noroeste 22 Noroeste 0 953.4 -1 27
2019-05-22 18:00:00 27.2 8 Oeste 24 Oeste 0 953.6 -1.4 27
2019-05-22 17:00:00 27.1 5 Oeste 18 Noroeste 0 953.8 -1.6 30
2019-05-22 16:00:00 25.5 9 Oeste 21 Noroeste 0 954.4 -1.5 31
2019-05-22 15:00:00 24.8 10 Oeste 20 Oeste 0 955 -1.4 32
2019-05-22 14:00:00 23.5 7 Noroeste 15 Oeste 0 955.4 -1.2 35
2019-05-22 13:00:00 22 4 Nordeste 12 Sudoeste 0 955.9 -0.8 42
2019-05-22 12:00:00 19.4 4 Nordeste 10 Sudoeste 0 956.4 -0.3 48
2019-05-22 11:00:00 16.5 5 Oeste 10 Oeste 0 956.6 0.1 61
2019-05-22 10:00:00 14.2 5 Oeste 9 Noroeste 0 956.7 0.4 71
2019-05-22 09:00:00 12.9 4 Oeste 6 Oeste 0 956.7 0.5 74
2019-05-22 08:00:00 10.4 2 Este 3 Sudeste 0 956.5 0.4 86
2019-05-22 07:00:00 9.9 0 Calma 5 Este 0 956.3 0 87
2019-05-22 06:00:00 10.6 2 Norte 4 Nordeste 0 956.2 0.1 85
2019-05-22 05:00:00 11.6 3 Este 5 Nordeste 0 956.1 0 81
2019-05-22 04:00:00 12.8 0 Calma 5 Oeste 0 956.3 0.8 77
2019-05-22 03:00:00 14 2 Norte 8 Este 0 956.1 0.6 72
2019-05-22 02:00:00 14.5 5 Sudeste 11 Sudeste 0 956.1 1.1 71
2019-05-22 01:00:00 15.1 4 Sudeste 6 Sudeste 0 955.5 1.5 69
2019-05-22 00:00:00 16.2 3 Sudeste 8 Sur 0 955.5 2.5 66
2019-05-21 23:00:00 18.1 4 Sudoeste 14 Oeste 0 955 2.5 59
2019-05-21 22:00:00 19.9 6 Sudoeste 18 Oeste 0 954 1.6 53
2019-05-21 21:00:00 22.6 10 Noroeste 21 Noroeste 0 953 0.5 42
2019-05-21 20:00:00 23.1 2 Noroeste 15 Noroeste 0 952.5 -0.5 33
2019-05-21 19:00:00 24.8 7 Noroeste 18 Noroeste 0 952.4 -0.8 28
2019-05-21 18:00:00 24.6 5 Oeste 19 Sudoeste 0 952.5 -1 28
2019-05-21 17:00:00 24.3 9 Oeste 19 Noroeste 0 953 -0.9 29
2019-05-21 16:00:00 23.5 6 Noroeste 19 Noroeste 0 953.2 -1 29
2019-05-21 15:00:00 22.7 7 Sudoeste 14 Oeste 0 953.5 -1.1 33
2019-05-21 14:00:00 21.3 6 Oeste 15 Oeste 0 953.9 -1 35
2019-05-21 13:00:00 19.1 8 Oeste 15 Oeste 0 954.2 -0.9 43
2019-05-21 12:00:00 17 6 Oeste 15 Sudoeste 0 954.6 -0.3 49
2019-05-21 11:00:00 14.8 4 Oeste 12 Oeste 0 954.9 0.1 57
2019-05-21 10:00:00 12.5 5 Noroeste -- -- -- 955.1 0.8 63
2019-05-21 09:00:00 11.1 3 Norte 8 Sudeste 0 954.9 1 68
2019-05-21 08:00:00 8.2 3 Sudeste 6 Sudeste 0 954.8 1.1 80
2019-05-21 07:00:00 8.1 0 Calma 6 Oeste 0 954.3 0.7 78
2019-05-21 06:00:00 8.8 3 Noroeste 8 Sudeste 0 953.9 0.5 77
2019-05-21 05:00:00 9.2 5 Sur 9 Sur 0 953.7 0.2 73
2019-05-21 04:00:00 9.4 3 Sudeste 6 Sudeste 0 953.6 0.3 73
2019-05-21 03:00:00 10.3 3 Este 6 Sur 0 953.4 0.3 68
2019-05-21 02:00:00 11.7 3 Este 6 Noroeste 0 953.5 0.7 62
2019-05-21 01:00:00 13.3 0 Calma 9 Oeste 0 953.3 1.3 55
2019-05-21 00:00:00 15.1 3 Oeste 10 Oeste 0 953.1 1.6 47